Jucas, Brazil
Current Conditions -  °F | °C
As of 4:00 PM on Thursday 18 Dec 2014 (Local Time) from SBJU Reporting Station
Broken Clouds Broken Clouds  
Wind Chill: 86°   Ceiling: 8000
Heat Index: 95°   Visibility: 6mi
Dew Point: 75°   Wind: 3mph
Humidity: 70%   Direction: 350°N
Pressure: 29.94"   Gusts: NA
Location:  6.53°S, 39.53°W
Report Text: SBJU 181900Z 35003KT 9999 FEW020 BKN080 30/24 Q1014
Loading
Personal Weather Stations






























Interactive Weather Map New forecast layout! Learn more

10-Day Weather Forecast

Advertisements
Track Severe Weather on mobile